Aérodrome :
LOGIN :

S'inscrire | Disclaimer

   EN    FR    IT 

 










Légende :    VFR   VFR Marginal   IFR   IFR Intensif   IFR Très Intensif
Visi : 
Plafond : 
>= 8 km
>= 3000ft
5 à 8 km
1000 à 3000 ft
1500m à 5 km
500 à 1000 ft
800 à 1500m
200 à 500 ft
< 800m
< 200 ft
Symboles :   Orages  Brouillard  Fortes neiges  Fortes précipitations  Vent > 20 kt
SIGMETs :   Divers  Orages  Givrage  Turbulence  Onde Orograph.  Cendres Volcan.







- Altitude de l'aérodrome : 410 ft
- Code IATA : AVB


LIPA - Aviano AB Pordenone

DERNIER METAR :
  • 161655Z 01002KT 9999 FEW130 29/22 Q1016 RMK FEW VIS MIN 9999 WIND THR05 31001KT WIND THR23 32002KT A3003 BLU

METARs EXPIRÉS :
  • 161555Z 03007KT 9999 SCT130 29/21 Q1016 RMK BKN SCT180 VIS MIN 9999 WIND THR05 05004KT WIND THR23 06006KT A3003 BLU
  • 161455Z 06003KT 9999 SCT130 29/23 Q1016 RMK BKN BKN180 VIS MIN 9999 WIND THR05 11003KT WIND THR23 05004KT A3003 BLU

TAF TAF LIPA
Valide du 16 à 15h jusqu'au 17 à 00h UTC


161400Z 1615/1624 02005KT FEW035 SCT070
PROB40
TEMPO 1615/1618 5000 SHRA FEW030CB SCT050
Pas de NOTAMs connus pour ce terrain.



MET'MAP, la Météo Aéronautique d'un coup d'oeil ! - Copyright ORBIFLY Décembre 2007 - Disclaimer

ORBIFLY MET'MAP TEAM :

Programmation & Développement : Alexandra Zaïnal
Conception & Développement : Baudouin d'Aumeries
Co-Programmation & Développement : Marc-Olivier Méhu
Soutien technique & logistique : Manuel Goepfert

Contact : metmap@orbifly.com




SOURCES & CREDITS :

   NOAA